Terminal Aerodrome Forecast
Issued by NWS Dallas/Fort Worth, TX

Home | Current Version | Previous Version | Text Only | Print | Product List | Glossary On
Versions: 1 2 3 4 5 6 7 8 9 10 11 12 13 14 15 16 17 18 19 20 21 22 23 24 25 26 27 28
000
FTUS44 KFWD 180900 AAB
TAFDFW
TAF AMD
KDFW 180904Z 1809/1912 36007KT 4SM BR BKN040
     FM181200 03005KT P6SM OVC020
     FM181600 05006KT P6SM BKN050
     FM190300 11005KT P6SM SKC=

USA.gov is the U.S. government's official web portal to all federal, state and local government web resources and services.